Norene, Tennessee
Current Conditions -  °F | °C
As of 2:53 PM on Tuesday 21 Oct 2014 (Local Time) from KBNA Reporting Station
Few Clouds Few Clouds  
Wind Chill: 73°   Ceiling: Unl
Heat Index: 73°   Visibility: 10mi
Dew Point: 46°   Wind: 9mph
Humidity: 38%   Direction: 310°NW
Pressure: 30.03"   Gusts: NA
Location:  36.06°N, 86.24°W
Report Text: KBNA 211953Z 31008KT 10SM FEW055 23/08 A3003 RMK AO2 SLP165 T02280078
Loading
Personal Weather Stations






























Interactive Weather Map
Tropical Storm Tracking
New forecast layout! Learn more

10-Day Weather Forecast

Advertisements
Track Severe Weather on mobile